Time;durP1;ratioP1;P1;durP2;ratioP2;P2;SDS_P1;SDS_P2;PMS_P1;PMS_P2;Temp;Humidity;BMP_temperature;BMP_pressure;BME280_temperature;BME280_humidity;BME280_pressure;Samples;Min_cycle;Max_cycle;Signal;HPM_P1;HPM_P2
2023/06/21 00:01:43;;;;;;;18.23;4.85;;;;;;;18.72;100.00;96472.63;4993394;28;20138;-67
2023/06/21 00:04:08;;;;;;;25.30;4.88;;;;;;;18.73;100.00;96465.88;4978043;28;20053;-66
2023/06/21 00:06:34;;;;;;;17.15;4.47;;;;;;;18.75;100.00;96475.78;4982680;28;20118;-66
2023/06/21 00:09:03;;;;;;;17.30;4.40;;;;;;;18.75;100.00;96468.25;4983829;28;20038;-66
2023/06/21 00:11:29;;;;;;;20.65;4.75;;;;;;;18.79;100.00;96470.94;4980851;28;20046;-66
2023/06/21 00:13:55;;;;;;;21.15;4.78;;;;;;;18.81;100.00;96469.31;4982664;28;20050;-66
2023/06/21 00:16:22;;;;;;;231.10;127.35;;;;;;;18.96;100.00;96477.34;4978152;28;21636;-67
2023/06/21 00:18:47;;;;;;;18.58;5.78;;;;;;;19.22;100.00;96475.66;4984784;28;20046;-67
2023/06/21 00:21:13;;;;;;;14.43;3.85;;;;;;;19.47;100.00;96486.97;4994551;28;20045;-68
2023/06/21 00:23:41;;;;;;;16.33;3.97;;;;;;;19.64;100.00;96476.69;4985152;28;20065;-68
2023/06/21 00:26:06;;;;;;;15.43;4.03;;;;;;;19.73;100.00;96481.66;4979950;28;20046;-68
2023/06/21 00:28:32;;;;;;;12.90;4.80;;;;;;;19.81;100.00;96479.50;4985140;28;20100;-68
2023/06/21 00:30:57;;;;;;;14.27;4.45;;;;;;;19.87;100.00;96480.56;4982589;28;20049;-67
2023/06/21 00:33:22;;;;;;;16.73;4.00;;;;;;;19.79;100.00;96477.16;4977497;28;20880;-68
2023/06/21 00:35:48;;;;;;;14.55;4.13;;;;;;;19.63;100.00;96486.22;4982029;28;20042;-68
2023/06/21 00:38:13;;;;;;;15.80;4.82;;;;;;;19.63;100.00;96482.69;4976493;28;20129;-66
2023/06/21 00:40:39;;;;;;;22.35;4.55;;;;;;;19.66;100.00;96484.56;4983070;28;20503;-65
2023/06/21 00:43:05;;;;;;;16.23;4.22;;;;;;;19.70;100.00;96482.50;4978920;28;20046;-67
2023/06/21 00:45:38;;;;;;;16.30;4.05;;;;;;;19.61;100.00;96480.31;4985165;28;20423;-67
2023/06/21 00:48:03;;;;;;;16.23;3.92;;;;;;;19.59;100.00;96495.84;4984608;28;20041;-66
2023/06/21 00:50:29;;;;;;;23.02;5.05;;;;;;;19.54;100.00;96488.06;5007479;28;20046;-67
2023/06/21 00:52:54;;;;;;;11.00;3.60;;;;;;;19.46;100.00;96495.75;5006041;28;20049;-66
2023/06/21 00:55:20;;;;;;;16.52;3.92;;;;;;;19.22;100.00;96506.94;5001715;28;20084;-66
2023/06/21 00:57:45;;;;;;;20.23;4.63;;;;;;;19.19;100.00;96516.13;5006317;28;20576;-66
2023/06/21 01:00:29;;;;;;;19.23;4.85;;;;;;;19.17;100.00;96513.00;5007196;28;20046;-67
2023/06/21 01:02:56;;;;;;;21.02;4.30;;;;;;;19.08;100.00;96518.34;5020302;28;20042;-67
2023/06/21 01:05:23;;;;;;;15.25;4.47;;;;;;;18.97;100.00;96513.00;5000600;28;20058;-68
2023/06/21 01:08:11;;;;;;;18.65;4.32;;;;;;;18.92;100.00;96510.72;5005057;28;20042;-67
2023/06/21 01:10:58;;;;;;;23.90;4.43;;;;;;;18.85;100.00;96524.75;5020188;28;20038;-67
2023/06/21 01:13:50;;;;;;;17.70;4.60;;;;;;;19.14;100.00;96530.53;4999694;28;20061;-67
2023/06/21 01:16:18;;;;;;;18.67;4.68;;;;;;;18.94;100.00;96527.72;5001983;28;20046;-66
2023/06/21 01:18:47;;;;;;;19.65;4.57;;;;;;;18.80;100.00;96530.75;5006630;28;20046;-67
2023/06/21 01:21:19;;;;;;;22.73;4.40;;;;;;;18.67;100.00;96525.84;5000238;28;20050;-67
2023/06/21 01:24:09;;;;;;;16.67;4.30;;;;;;;18.67;100.00;96519.50;5004601;28;20087;-67
2023/06/21 01:26:52;;;;;;;14.80;4.15;;;;;;;18.65;100.00;96522.69;5004730;28;20050;-67
2023/06/21 01:29:21;;;;;;;15.82;4.35;;;;;;;18.75;100.00;96536.81;5001865;28;20076;-67
2023/06/21 01:31:49;;;;;;;17.35;4.03;;;;;;;18.87;100.00;96533.41;5005082;28;20050;-69
2023/06/21 01:34:16;;;;;;;19.90;4.60;;;;;;;18.81;100.00;96543.44;4999084;28;20052;-70
2023/06/21 01:36:41;;;;;;;13.05;4.28;;;;;;;18.70;100.00;96543.63;5009388;28;20037;-69
2023/06/21 01:39:10;;;;;;;13.65;4.32;;;;;;;18.52;100.00;96549.50;5007464;28;20549;-66
2023/06/21 01:41:36;;;;;;;21.90;4.65;;;;;;;18.54;100.00;96549.84;5005635;28;20085;-68
2023/06/21 01:44:09;;;;;;;17.08;3.83;;;;;;;18.36;100.00;96550.16;5004712;28;20049;-68
2023/06/21 01:46:35;;;;;;;21.20;4.75;;;;;;;18.45;100.00;96542.06;4983694;28;20096;-68
2023/06/21 01:49:03;;;;;;;16.58;4.50;;;;;;;18.32;100.00;96549.44;4984544;28;20567;-68
2023/06/21 01:51:29;;;;;;;15.82;4.35;;;;;;;18.43;100.00;96554.81;5001428;28;20046;-68
2023/06/21 01:53:55;;;;;;;16.75;4.38;;;;;;;18.28;100.00;96557.81;5004733;28;20054;-68
2023/06/21 01:56:23;;;;;;;18.88;5.05;;;;;;;18.03;100.00;96557.44;5013264;28;20052;-68
2023/06/21 01:58:49;;;;;;;14.57;4.47;;;;;;;18.28;100.00;96559.81;5007660;28;20035;-67
2023/06/21 02:01:15;;;;;;;15.63;4.30;;;;;;;18.40;100.00;96562.00;4977921;28;20041;-68
2023/06/21 02:03:47;;;;;;;17.83;4.45;;;;;;;18.33;100.00;96564.88;4983815;28;20589;-67
2023/06/21 02:06:14;;;;;;;14.10;4.53;;;;;;;18.41;100.00;96573.84;4979995;28;20038;-68
2023/06/21 02:08:41;;;;;;;14.13;3.83;;;;;;;18.47;100.00;96567.38;4998733;28;20042;-68
2023/06/21 02:11:07;;;;;;;16.38;3.83;;;;;;;18.50;100.00;96574.88;5000848;28;20077;-67
2023/06/21 02:13:32;;;;;;;17.05;3.65;;;;;;;18.52;100.00;96566.13;5003837;28;20196;-68
2023/06/21 02:15:57;;;;;;;15.68;4.00;;;;;;;18.56;100.00;96569.63;5004542;28;20041;-68
2023/06/21 02:18:24;;;;;;;16.20;4.00;;;;;;;18.52;100.00;96578.00;4999388;28;20049;-68
2023/06/21 02:20:50;;;;;;;23.13;4.85;;;;;;;18.46;100.00;96576.94;5004093;28;20227;-67
2023/06/21 02:23:16;;;;;;;13.98;4.57;;;;;;;18.41;100.00;96582.94;4998633;28;20043;-68
2023/06/21 02:25:42;;;;;;;24.65;5.18;;;;;;;18.37;100.00;96593.31;5003941;28;20073;-68
2023/06/21 02:28:07;;;;;;;15.13;4.72;;;;;;;18.37;100.00;96596.09;4999202;28;20123;-68
2023/06/21 02:30:32;;;;;;;11.85;4.03;;;;;;;18.35;100.00;96598.50;5003717;28;20096;-69
2023/06/21 02:32:58;;;;;;;11.73;4.10;;;;;;;18.34;100.00;96600.47;5004663;28;20262;-69
2023/06/21 02:35:24;;;;;;;16.40;4.53;;;;;;;18.21;100.00;96605.06;4999706;28;20133;-69
2023/06/21 02:37:49;;;;;;;17.13;4.55;;;;;;;17.92;100.00;96599.16;5003559;28;20046;-69
2023/06/21 02:40:15;;;;;;;21.00;4.15;;;;;;;17.65;100.00;96590.78;4999461;28;20046;-69
2023/06/21 02:42:41;;;;;;;18.48;4.72;;;;;;;17.07;100.00;96594.25;5004162;28;20040;-69
2023/06/21 02:45:09;;;;;;;16.25;5.05;;;;;;;16.52;100.00;96593.16;4999670;28;20054;-69
2023/06/21 02:47:35;;;;;;;19.20;5.63;;;;;;;16.49;100.00;96590.44;5017383;28;20038;-68
2023/06/21 02:50:04;;;;;;;17.63;5.85;;;;;;;16.37;100.00;96598.03;5001758;28;20042;-69
2023/06/21 02:52:31;;;;;;;21.42;5.53;;;;;;;16.18;100.00;96602.13;5001451;28;20073;-69
2023/06/21 02:54:57;;;;;;;21.98;6.47;;;;;;;16.11;100.00;96601.38;4995926;28;20045;-68
2023/06/21 02:57:22;;;;;;;15.80;4.93;;;;;;;16.24;100.00;96614.31;5009547;28;20875;-67
2023/06/21 02:59:48;;;;;;;16.92;5.80;;;;;;;16.43;100.00;96618.50;5011735;28;20061;-68
2023/06/21 03:02:16;;;;;;;22.35;5.35;;;;;;;16.63;100.00;96613.19;4981318;28;20038;-68
2023/06/21 03:04:42;;;;;;;15.48;5.45;;;;;;;16.74;100.00;96615.09;4989228;28;20129;-68
2023/06/21 03:07:08;;;;;;;17.48;5.05;;;;;;;16.80;100.00;96621.78;4991738;28;20053;-68
2023/06/21 03:09:33;;;;;;;16.42;4.97;;;;;;;16.90;100.00;96622.88;4984402;28;20054;-68
2023/06/21 03:12:07;;;;;;;18.00;5.13;;;;;;;17.10;100.00;96628.59;5001306;28;20129;-67
2023/06/21 03:14:37;;;;;;;19.95;4.55;;;;;;;17.25;100.00;96627.25;4994479;28;20038;-68
2023/06/21 03:17:03;;;;;;;15.02;4.93;;;;;;;17.30;100.00;96637.06;5002386;28;20033;-67
2023/06/21 03:19:29;;;;;;;19.63;5.15;;;;;;;17.22;100.00;96632.84;5001865;28;20061;-67
2023/06/21 03:21:55;;;;;;;16.70;5.15;;;;;;;17.22;100.00;96633.63;5002866;28;20046;-68
2023/06/21 03:24:21;;;;;;;19.02;5.45;;;;;;;17.32;100.00;96641.03;4997486;28;20073;-68
2023/06/21 03:26:46;;;;;;;16.63;4.68;;;;;;;17.47;100.00;96643.63;5003342;28;20053;-68
2023/06/21 03:29:11;;;;;;;15.88;4.90;;;;;;;17.52;100.00;96652.25;4998256;28;20042;-67
2023/06/21 03:31:37;;;;;;;17.27;4.85;;;;;;;17.61;100.00;96662.03;5002052;28;20132;-68
2023/06/21 03:34:02;;;;;;;14.30;4.03;;;;;;;17.75;100.00;96668.22;5000788;28;20049;-68
2023/06/21 03:36:28;;;;;;;17.13;4.18;;;;;;;17.92;100.00;96671.19;5000195;28;20508;-68
2023/06/21 03:38:54;;;;;;;17.48;4.60;;;;;;;17.99;100.00;96676.63;5001360;28;20277;-68
2023/06/21 03:41:19;;;;;;;17.92;4.53;;;;;;;18.01;100.00;96681.78;4997540;28;20411;-68
2023/06/21 03:43:44;;;;;;;18.20;4.70;;;;;;;18.20;100.00;96685.84;5001717;28;20054;-68
2023/06/21 03:46:11;;;;;;;14.15;4.38;;;;;;;18.31;100.00;96686.47;4997362;28;20127;-67
2023/06/21 03:48:36;;;;;;;22.27;4.75;;;;;;;18.37;100.00;96684.03;5002805;28;20042;-67
2023/06/21 03:51:02;;;;;;;15.68;4.95;;;;;;;18.40;100.00;96695.09;5010345;28;20546;-67
2023/06/21 03:53:27;;;;;;;17.08;4.60;;;;;;;18.46;100.00;96695.41;5000819;28;20558;-69
2023/06/21 03:55:53;;;;;;;16.50;5.50;;;;;;;18.38;100.00;96691.91;5003136;28;20038;-68
2023/06/21 03:58:18;;;;;;;17.90;4.50;;;;;;;18.54;100.00;96696.84;4997785;28;20104;-68
2023/06/21 04:00:44;;;;;;;13.13;4.32;;;;;;;18.78;100.00;96689.34;5001729;28;20033;-68
2023/06/21 04:03:09;;;;;;;15.02;4.78;;;;;;;18.98;100.00;96694.19;4987403;28;20395;-69
2023/06/21 04:05:35;;;;;;;10.45;4.45;;;;;;;19.20;100.00;96698.16;5001749;28;20045;-69
2023/06/21 04:08:00;;;;;;;13.77;4.25;;;;;;;19.37;100.00;96704.59;5002538;28;20042;-69
2023/06/21 04:10:26;;;;;;;17.95;4.60;;;;;;;19.14;100.00;96707.41;4997128;28;20473;-69
2023/06/21 04:12:51;;;;;;;16.73;4.97;;;;;;;19.23;100.00;96699.31;5002315;28;20042;-69
2023/06/21 04:15:17;;;;;;;16.35;4.90;;;;;;;19.34;100.00;96701.88;4998903;28;20583;-69
2023/06/21 04:17:43;;;;;;;14.93;5.40;;;;;;;19.24;100.00;96703.66;5003796;28;20111;-69
2023/06/21 04:20:13;;;;;;;12.18;4.57;;;;;;;18.63;100.00;96705.41;4998218;28;20052;-67
2023/06/21 04:22:40;;;;;;;17.75;4.80;;;;;;;18.82;100.00;96697.63;5000218;28;20084;-69
2023/06/21 04:25:06;;;;;;;10.13;4.60;;;;;;;19.23;100.00;96696.53;4997163;28;20050;-67
2023/06/21 04:27:32;;;;;;;17.30;4.35;;;;;;;19.73;100.00;96701.16;5002514;28;20042;-69
2023/06/21 04:29:57;;;;;;;17.88;4.90;;;;;;;20.22;100.00;96718.03;5002231;28;20084;-68
2023/06/21 04:32:22;;;;;;;15.48;4.55;;;;;;;20.76;100.00;96724.41;4996633;28;20712;-69
2023/06/21 04:34:49;;;;;;;15.32;4.47;;;;;;;21.18;100.00;96717.00;5002551;28;20136;-69
2023/06/21 04:37:14;;;;;;;18.55;5.88;;;;;;;21.45;99.38;96724.31;5011733;28;20125;-69
2023/06/21 04:39:40;;;;;;;17.50;4.85;;;;;;;21.80;98.28;96727.34;5002057;28;20387;-68
2023/06/21 04:42:05;;;;;;;13.13;3.92;;;;;;;22.38;94.93;96729.28;4997468;28;20038;-68
2023/06/21 04:44:31;;;;;;;12.20;4.68;;;;;;;22.81;90.26;96727.19;5001058;28;20057;-68
2023/06/21 04:47:00;;;;;;;17.52;4.75;;;;;;;23.17;87.02;96735.22;5002274;28;20446;-67
2023/06/21 04:49:25;;;;;;;16.53;4.63;;;;;;;23.78;83.68;96735.16;4997032;28;20100;-67
2023/06/21 04:51:57;;;;;;;14.27;4.55;;;;;;;24.50;78.94;96740.94;5001744;28;20296;-65
2023/06/21 04:54:23;;;;;;;12.25;4.57;;;;;;;25.16;74.27;96741.53;5011791;28;20943;-67
2023/06/21 04:56:52;;;;;;;12.95;3.97;;;;;;;25.37;68.72;96739.09;5001107;28;20061;-68
2023/06/21 04:59:18;;;;;;;18.17;5.55;;;;;;;22.36;89.05;96754.06;4996715;28;20042;-68
2023/06/21 05:01:44;;;;;;;13.45;5.03;;;;;;;20.93;100.00;96758.63;4995715;28;20057;-69
2023/06/21 05:04:09;;;;;;;14.40;5.28;;;;;;;21.62;99.73;96754.94;4990239;28;20054;-68
2023/06/21 05:06:35;;;;;;;15.23;5.80;;;;;;;21.26;100.00;96764.97;4982581;28;20070;-69
2023/06/21 05:09:00;;;;;;;13.65;5.18;;;;;;;22.11;97.24;96765.91;4982267;28;20173;-69
2023/06/21 05:11:25;;;;;;;12.18;4.57;;;;;;;23.79;86.59;96773.84;4977447;28;20052;-69
2023/06/21 05:13:51;;;;;;;16.95;6.15;;;;;;;22.76;87.25;96762.06;4981330;28;20492;-69
2023/06/21 05:16:17;;;;;;;13.32;5.50;;;;;;;24.24;80.10;96763.50;4993161;28;20092;-69
2023/06/21 05:18:42;;;;;;;17.17;5.25;;;;;;;24.40;76.94;96774.47;5001875;28;20065;-69
2023/06/21 05:21:08;;;;;;;20.30;5.78;;;;;;;24.96;74.70;96772.75;4996228;28;20072;-68
2023/06/21 05:23:33;;;;;;;19.33;6.25;;;;;;;26.51;65.58;96780.25;5002022;28;20042;-69
2023/06/21 05:25:59;;;;;;;19.98;5.68;;;;;;;27.03;63.24;96783.06;5010887;28;20691;-69
2023/06/21 05:28:24;;;;;;;15.82;5.65;;;;;;;28.10;56.29;96782.56;4996644;28;20108;-68
2023/06/21 05:30:49;;;;;;;12.95;5.05;;;;;;;28.78;53.91;96787.41;5001882;28;20574;-68
2023/06/21 05:33:15;;;;;;;12.68;4.30;;;;;;;29.34;51.57;96787.50;5011656;28;20038;-69
2023/06/21 05:35:40;;;;;;;17.95;4.78;;;;;;;28.91;51.80;96787.09;5003824;28;20041;-69
2023/06/21 05:38:06;;;;;;;15.00;5.10;;;;;;;29.21;51.24;96783.47;5000054;28;20048;-69
2023/06/21 05:40:31;;;;;;;10.85;4.40;;;;;;;29.42;50.53;96773.00;5004664;28;20045;-69
2023/06/21 05:43:01;;;;;;;15.27;4.80;;;;;;;27.81;54.28;96766.38;5004970;28;20065;-68
2023/06/21 05:45:27;;;;;;;;;;;;;;;28.01;53.99;96772.16;4999754;28;20069;-69
2023/06/21 05:47:53;;;;;;;15.65;4.93;;;;;;;26.86;58.47;96768.59;5005386;28;19914;-69
2023/06/21 05:50:18;;;;;;;15.82;5.40;;;;;;;28.22;53.99;96769.50;4999005;28;20522;-68
2023/06/21 05:52:44;;;;;;;11.45;4.50;;;;;;;28.72;51.65;96783.72;5005089;28;20161;-69
2023/06/21 05:55:09;;;;;;;19.70;9.40;;;;;;;28.48;52.90;96780.19;5005052;28;20049;-70
2023/06/21 05:57:34;;;;;;;19.48;4.78;;;;;;;26.28;61.29;96776.06;5012417;28;20042;-69
2023/06/21 06:00:00;;;;;;;17.05;5.57;;;;;;;28.14;54.53;96785.97;5004308;28;20033;-69
2023/06/21 06:02:25;;;;;;;14.50;5.32;;;;;;;28.97;51.85;96796.44;4999407;28;20042;-69
2023/06/21 06:04:50;;;;;;;14.60;5.10;;;;;;;29.14;50.36;96802.34;4992343;28;20117;-70
2023/06/21 06:07:17;;;;;;;14.57;5.32;;;;;;;29.14;48.29;96805.16;4979530;28;20617;-70
2023/06/21 06:09:43;;;;;;;17.02;5.60;;;;;;;28.50;50.45;96800.19;5000427;28;20108;-70
2023/06/21 06:12:08;;;;;;;16.23;6.05;;;;;;;29.16;48.34;96810.31;4999358;28;20053;-70
2023/06/21 06:14:34;;;;;;;15.02;5.53;;;;;;;28.67;50.25;96795.66;5003408;28;20172;-68
2023/06/21 06:16:59;;;;;;;23.45;8.50;;;;;;;29.39;48.59;96788.88;5003702;28;20085;-68
2023/06/21 06:19:24;;;;;;;15.38;5.50;;;;;;;28.03;51.39;96794.97;4999776;28;20057;-68
2023/06/21 06:21:50;;;;;;;18.70;5.40;;;;;;;28.73;49.17;96793.72;5003025;28;20137;-68
2023/06/21 06:24:15;;;;;;;21.17;5.85;;;;;;;28.79;48.46;96794.59;4998986;28;20053;-71
2023/06/21 06:26:41;;;;;;;15.82;5.25;;;;;;;29.05;48.25;96804.50;5003584;28;20379;-68
2023/06/21 06:29:06;;;;;;;15.30;5.72;;;;;;;29.61;49.58;96796.09;4998836;28;20038;-68
2023/06/21 06:31:31;;;;;;;17.45;5.68;;;;;;;30.62;47.83;96799.34;5003080;28;20045;-69
2023/06/21 06:33:57;;;;;;;17.42;5.65;;;;;;;29.92;48.04;96796.25;5004087;28;20593;-69
2023/06/21 06:36:22;;;;;;;15.10;5.28;;;;;;;29.92;48.19;96796.25;4999553;28;20777;-68
2023/06/21 06:38:49;;;;;;;18.58;6.13;;;;;;;28.27;51.43;96801.81;5001673;28;20045;-69
2023/06/21 06:41:14;;;;;;;20.70;5.18;;;;;;;29.67;47.55;96806.16;5000354;28;20092;-69
2023/06/21 06:43:41;;;;;;;22.17;5.40;;;;;;;30.79;44.98;96800.28;5002807;28;20042;-68
2023/06/21 06:46:07;;;;;;;21.83;6.57;;;;;;;29.39;47.54;96810.63;4998686;28;20549;-69
2023/06/21 06:48:32;;;;;;;15.82;5.60;;;;;;;29.22;47.05;96814.00;5003330;28;20046;-68
2023/06/21 06:50:58;;;;;;;18.63;6.68;;;;;;;29.09;47.58;96817.09;5001950;28;20042;-69
2023/06/21 06:53:24;;;;;;;18.80;6.28;;;;;;;29.08;49.51;96803.50;4999126;28;20436;-68
2023/06/21 06:55:53;;;;;;;14.65;5.88;;;;;;;30.02;48.58;96796.13;5003970;28;20113;-68
2023/06/21 06:58:19;;;;;;;;;;;;;;;30.51;46.91;96790.75;4999861;28;20387;-69
2023/06/21 07:00:44;;;;;;;20.45;6.60;;;;;;;31.01;46.71;96785.56;5003752;28;19917;-68
2023/06/21 07:03:10;;;;;;;16.73;5.38;;;;;;;29.97;48.05;96777.06;4989677;28;20515;-68
2023/06/21 07:05:35;;;;;;;23.67;6.93;;;;;;;30.82;47.35;96778.69;5003243;28;20121;-69
2023/06/21 07:08:03;;;;;;;17.45;6.13;;;;;;;30.29;48.32;96766.63;5003334;28;20150;-69
2023/06/21 07:10:29;;;;;;;18.27;6.20;;;;;;;30.26;48.31;96745.78;4982708;28;20046;-69
2023/06/21 07:12:54;;;;;;;14.55;5.40;;;;;;;30.69;45.02;96751.59;4984407;28;20054;-69
2023/06/21 07:15:20;;;;;;;18.60;5.50;;;;;;;31.23;43.51;96731.19;4989049;28;20061;-69
2023/06/21 07:17:45;;;;;;;14.02;4.63;;;;;;;30.65;45.70;96727.69;5003981;28;20192;-69
2023/06/21 07:20:11;;;;;;;20.65;6.10;;;;;;;29.85;46.83;96717.63;4999009;28;20107;-68
2023/06/21 07:22:36;;;;;;;17.40;5.43;;;;;;;27.26;49.79;96705.63;5002909;28;20045;-68
2023/06/21 07:25:02;;;;;;;26.50;5.50;;;;;;;27.90;49.21;96693.16;5003535;28;20038;-68
2023/06/21 07:27:28;;;;;;;17.08;5.00;;;;;;;28.50;47.46;96682.66;4993836;28;20046;-68
2023/06/21 07:29:53;;;;;;;19.73;5.25;;;;;;;27.37;50.04;96663.72;5002882;28;20068;-70
2023/06/21 07:32:19;;;;;;;16.30;4.95;;;;;;;25.82;53.95;96673.06;5001475;28;20431;-69
2023/06/21 07:34:44;;;;;;;20.73;5.57;;;;;;;26.07;53.83;96685.19;5003380;28;20631;-69
2023/06/21 07:37:09;;;;;;;22.52;5.30;;;;;;;27.91;50.56;96699.56;4999133;28;20133;-69
2023/06/21 07:39:35;;;;;;;19.05;5.00;;;;;;;28.24;49.86;96696.56;5002538;28;20208;-69
2023/06/21 07:42:04;;;;;;;19.77;5.18;;;;;;;27.17;52.72;96712.09;4992760;28;20054;-67
2023/06/21 07:44:30;;;;;;;;;;;;;;;27.31;54.83;96716.25;4989042;28;20042;-69
2023/06/21 07:46:55;;;;;;;15.50;5.47;;;;;;;29.72;48.65;96729.25;5002235;28;19919;-69
2023/06/21 07:49:21;;;;;;;18.45;7.03;;;;;;;30.65;47.43;96728.44;4998325;28;20368;-68
2023/06/21 07:51:46;;;;;;;17.73;6.90;;;;;;;30.73;47.54;96728.75;5002402;28;20381;-69
2023/06/21 07:54:11;;;;;;;16.67;6.78;;;;;;;31.18;47.21;96734.75;4997285;28;20510;-69
2023/06/21 07:56:37;;;;;;;23.20;6.47;;;;;;;31.30;47.16;96723.53;5004843;28;20514;-68
2023/06/21 07:59:02;;;;;;;18.58;7.07;;;;;;;30.68;48.67;96735.13;5000619;28;20050;-68
2023/06/21 08:01:28;;;;;;;22.45;7.03;;;;;;;29.85;52.03;96740.22;4994893;28;20038;-68
2023/06/21 08:03:54;;;;;;;27.77;7.35;;;;;;;29.40;53.95;96752.97;5000307;28;20148;-68
2023/06/21 08:06:19;;;;;;;20.33;7.75;;;;;;;29.79;52.79;96769.66;4996551;28;20406;-70
2023/06/21 08:08:44;;;;;;;18.08;8.02;;;;;;;28.84;55.89;96795.19;5002707;28;20495;-70
2023/06/21 08:11:10;;;;;;;18.40;7.40;;;;;;;28.25;58.67;96844.53;4997675;28;20037;-68
2023/06/21 08:13:35;;;;;;;24.20;8.30;;;;;;;27.55;62.36;96898.28;5000384;28;20108;-70
2023/06/21 08:16:00;;;;;;;22.98;8.10;;;;;;;26.83;67.38;96953.00;5002206;28;20040;-70
2023/06/21 08:18:26;;;;;;;13.90;7.07;;;;;;;25.98;73.08;97000.25;4997106;28;20471;-70
2023/06/21 08:20:51;;;;;;;17.45;7.72;;;;;;;25.31;79.01;96994.03;5001824;28;20069;-68
2023/06/21 08:23:16;;;;;;;16.35;7.72;;;;;;;25.14;81.25;97018.66;4996388;28;20041;-69
2023/06/21 08:25:43;;;;;;;13.23;3.95;;;;;;;23.91;76.84;96992.44;5001971;28;20042;-70
2023/06/21 08:28:09;;;;;;;24.33;3.55;;;;;;;22.77;83.11;97008.53;4997183;28;20490;-69
2023/06/21 08:30:34;;;;;;;18.08;4.25;;;;;;;21.83;92.10;97015.66;5000406;28;20049;-69
2023/06/21 08:32:59;;;;;;;19.45;3.97;;;;;;;21.15;96.34;97015.09;5001564;28;20099;-68
2023/06/21 08:35:25;;;;;;;24.92;4.65;;;;;;;20.62;100.00;97010.16;4997168;28;20046;-70
2023/06/21 08:37:55;;;;;;;21.77;3.67;;;;;;;19.98;100.00;97005.66;5002127;28;20045;-69
2023/06/21 08:40:42;;;;;;;20.70;3.25;;;;;;;19.71;100.00;96861.94;4996908;28;20038;-70
2023/06/21 08:43:08;;;;;;;22.95;5.18;;;;;;;19.53;100.00;96934.47;4977568;28;20042;-69
2023/06/21 08:45:33;;;;;;;19.00;4.07;;;;;;;19.48;100.00;96962.72;4982128;28;20046;-68
2023/06/21 08:48:03;;;;;;;26.88;4.55;;;;;;;19.40;100.00;96928.72;4981562;28;20171;-70
2023/06/21 08:50:30;;;;;;;25.45;4.25;;;;;;;19.41;100.00;96932.28;4979939;28;20065;-69
2023/06/21 08:52:58;;;;;;;18.10;4.25;;;;;;;19.56;100.00;96903.06;5001989;28;20403;-70
2023/06/21 08:55:27;;;;;;;18.13;3.53;;;;;;;19.86;100.00;96885.53;4996593;28;20937;-70
2023/06/21 08:57:58;;;;;;;16.70;3.47;;;;;;;20.18;100.00;96863.91;5001436;28;20109;-70
2023/06/21 09:00:33;;;;;;;17.45;3.83;;;;;;;20.47;100.00;96878.03;4996423;28;20095;-69
2023/06/21 09:03:13;;;;;;;19.35;3.72;;;;;;;21.12;100.00;96888.63;4992762;28;20049;-70
2023/06/21 09:05:52;;;;;;;12.65;3.53;;;;;;;21.55;100.00;96901.59;4999348;28;20038;-70
2023/06/21 09:08:19;;;;;;;15.15;3.85;;;;;;;21.69;100.00;96900.47;4981336;28;20038;-69
2023/06/21 09:10:49;;;;;;;15.80;2.92;;;;;;;22.04;100.00;96906.38;5002700;28;20518;-70
2023/06/21 09:13:14;;;;;;;14.75;3.03;;;;;;;22.55;100.00;96913.44;5000744;28;20046;-70
2023/06/21 09:15:41;;;;;;;14.93;3.25;;;;;;;22.71;100.00;96916.94;5003175;28;20099;-70
2023/06/21 09:18:06;;;;;;;22.00;4.07;;;;;;;23.22;100.00;96913.47;5000367;28;20041;-67
2023/06/21 09:20:32;;;;;;;16.95;3.15;;;;;;;23.88;97.08;96924.22;5005046;28;20364;-70
2023/06/21 09:22:59;;;;;;;16.30;3.33;;;;;;;24.35;89.31;96928.22;5004360;28;20034;-70
2023/06/21 09:25:26;;;;;;;12.52;2.90;;;;;;;24.93;86.54;96924.19;4999010;28;20041;-69
2023/06/21 09:27:55;;;;;;;12.63;3.08;;;;;;;25.48;79.87;96930.09;5004805;28;20787;-70
2023/06/21 09:30:22;;;;;;;11.52;3.05;;;;;;;25.66;76.91;96922.97;5001079;28;20387;-70
2023/06/21 09:32:49;;;;;;;13.23;3.00;;;;;;;25.74;74.82;96927.84;5005507;28;20054;-70
2023/06/21 09:35:15;;;;;;;16.25;3.15;;;;;;;25.70;77.16;96921.59;4998959;28;20065;-69
2023/06/21 09:37:40;;;;;;;19.02;3.10;;;;;;;25.29;79.79;96920.03;5003730;28;20766;-68
2023/06/21 09:40:07;;;;;;;17.55;2.67;;;;;;;25.05;79.93;96922.50;4999288;28;20046;-67
2023/06/21 09:42:39;;;;;;;19.00;3.13;;;;;;;25.86;74.95;96936.63;4989990;28;20053;-68
2023/06/21 09:45:12;;;;;;;12.55;2.83;;;;;;;25.84;76.19;96939.09;4980563;28;20073;-67
2023/06/21 09:47:41;;;;;;;20.92;3.15;;;;;;;26.07;72.66;96932.97;4985293;28;20157;-69
2023/06/21 09:50:07;;;;;;;14.25;3.08;;;;;;;25.55;73.11;96923.41;5000902;28;20103;-68
2023/06/21 09:52:33;;;;;;;15.85;3.00;;;;;;;25.81;71.38;96926.00;5004448;28;20050;-68
2023/06/21 09:54:58;;;;;;;17.40;2.83;;;;;;;25.33;74.73;96937.50;5005853;28;20050;-68
2023/06/21 09:57:31;;;;;;;15.45;2.67;;;;;;;25.60;73.19;96939.63;4999606;28;20049;-68
2023/06/21 10:00:01;;;;;;;16.23;3.25;;;;;;;26.12;69.00;96929.50;5004636;28;20038;-68
2023/06/21 10:02:27;;;;;;;10.52;2.80;;;;;;;26.43;66.82;96927.84;4999294;28;20545;-68
2023/06/21 10:04:54;;;;;;;13.75;2.60;;;;;;;26.23;63.70;96928.28;5003435;28;20103;-68
2023/06/21 10:07:24;;;;;;;15.45;2.63;;;;;;;26.74;65.78;96933.34;4979392;28;20053;-67
2023/06/21 10:09:49;;;;;;;17.08;3.13;;;;;;;27.03;64.48;96932.03;4984084;28;20054;-69
2023/06/21 10:12:15;;;;;;;15.88;3.17;;;;;;;26.72;63.96;96930.19;4979406;28;20042;-69
2023/06/21 10:14:41;;;;;;;16.00;3.20;;;;;;;26.62;66.56;96937.09;4984333;28;20506;-68
2023/06/21 10:17:08;;;;;;;16.77;3.08;;;;;;;25.80;70.17;96946.88;4992721;28;20151;-67
2023/06/21 10:19:35;;;;;;;15.80;3.00;;;;;;;26.20;66.13;96954.47;5003435;28;20049;-69
2023/06/21 10:22:09;;;;;;;13.80;3.00;;;;;;;26.93;61.88;96953.75;5003199;28;20053;-68
2023/06/21 10:24:48;;;;;;;14.82;3.05;;;;;;;27.26;57.37;96967.94;4990836;28;20046;-68
2023/06/21 10:27:15;;;;;;;12.10;2.67;;;;;;;27.43;57.57;96973.97;4980425;28;20042;-68
2023/06/21 10:29:43;;;;;;;14.50;3.08;;;;;;;27.22;56.92;96961.66;4984697;28;20042;-69
2023/06/21 10:32:09;;;;;;;15.02;3.17;;;;;;;27.26;57.42;96970.75;4979714;28;20049;-68
2023/06/21 10:34:56;;;;;;;14.25;3.00;;;;;;;26.43;62.37;96967.16;4985400;28;20047;-68
2023/06/21 10:37:48;;;;;;;15.50;2.72;;;;;;;27.01;59.69;96962.63;4987774;28;20049;-68
2023/06/21 10:40:15;;;;;;;17.15;3.78;;;;;;;27.16;58.90;96959.97;4998635;28;20038;-68
2023/06/21 10:42:42;;;;;;;14.02;2.95;;;;;;;26.96;58.71;96955.63;4987283;28;20120;-68
2023/06/21 10:45:11;;;;;;;10.90;3.08;;;;;;;27.71;56.81;96956.22;4979359;28;20038;-68
2023/06/21 10:47:38;;;;;;;18.73;3.20;;;;;;;28.24;56.03;96952.81;4983928;28;20052;-68
2023/06/21 10:50:06;;;;;;;13.80;2.70;;;;;;;28.63;53.07;96955.72;4993488;28;20038;-68
2023/06/21 10:52:34;;;;;;;12.35;2.75;;;;;;;28.65;53.71;96956.00;5001837;28;20046;-67
2023/06/21 10:55:02;;;;;;;14.52;2.67;;;;;;;28.61;52.80;96952.56;5004505;28;20052;-68
2023/06/21 10:57:29;;;;;;;7.95;2.33;;;;;;;28.66;51.43;96953.97;5000710;28;20050;-68
2023/06/21 10:59:56;;;;;;;13.02;2.10;;;;;;;28.94;50.93;96944.00;5003385;28;20037;-69
2023/06/21 11:02:23;;;;;;;13.63;2.42;;;;;;;28.84;51.26;96936.88;4998303;28;20905;-69
2023/06/21 11:05:25;;;;;;;12.25;2.33;;;;;;;28.57;52.45;96929.44;5003493;28;20128;-69
2023/06/21 11:07:58;;;;;;;15.32;2.50;;;;;;;27.88;54.92;96925.66;4941298;29;20039;-69
2023/06/21 11:10:29;;;;;;;10.23;1.85;;;;;;;28.46;52.36;96929.19;4982917;28;20057;-69
2023/06/21 11:12:56;;;;;;;12.25;2.50;;;;;;;28.46;52.58;96924.34;5002652;28;20391;-69
2023/06/21 11:15:24;;;;;;;8.65;2.33;;;;;;;27.70;53.10;96926.53;4998062;28;20042;-70
2023/06/21 11:18:10;;;;;;;16.08;2.08;;;;;;;28.47;51.87;96920.28;5002260;28;20180;-68
2023/06/21 11:20:55;;;;;;;13.55;2.50;;;;;;;28.83;51.44;96928.91;5002371;28;20092;-69
2023/06/21 11:23:22;;;;;;;10.82;2.20;;;;;;;28.46;51.40;96932.78;4997192;28;20473;-69